Time;durP1;ratioP1;P1;durP2;ratioP2;P2;SDS_P1;SDS_P2;PMS_P1;PMS_P2;Temp;Humidity;BMP_temperature;BMP_pressure;BME280_temperature;BME280_humidity;BME280_pressure;Samples;Min_cycle;Max_cycle;Signal;HPM_P1;HPM_P2
2023/08/22 00:02:25;;;;;;;;;3.25;2.00;;;;;22.09;50.88;101458.28;5098550;27;45378;-72
2023/08/22 00:04:51;;;;;;;;;2.75;1.00;;;;;22.07;51.19;101455.69;5086467;27;45400;-73
2023/08/22 00:07:16;;;;;;;;;4.00;1.50;;;;;22.10;50.97;101460.00;5070167;27;45540;-73
2023/08/22 00:09:42;;;;;;;;;1.00;1.00;;;;;22.09;50.99;101453.78;5084873;27;45470;-71
2023/08/22 00:12:07;;;;;;;;;1.00;1.00;;;;;22.08;50.91;101453.88;5064422;27;45854;-72
2023/08/22 00:14:33;;;;;;;;;1.75;1.25;;;;;22.05;51.25;101460.28;5079787;27;48074;-72
2023/08/22 00:16:58;;;;;;;;;1.75;0.00;;;;;21.99;50.97;101464.19;5085617;27;64220;-71
2023/08/22 00:19:23;;;;;;;;;2.00;2.00;;;;;21.95;51.25;101452.00;5078755;27;62621;-71
2023/08/22 00:21:49;;;;;;;;;2.25;2.00;;;;;21.92;51.60;101454.88;5085691;27;45477;-70
2023/08/22 00:24:14;;;;;;;;;2.00;1.00;;;;;21.86;51.42;101443.75;5096494;27;47335;-72
2023/08/22 00:26:40;;;;;;;;;2.75;1.25;;;;;21.83;52.71;101441.25;5087216;27;47151;-72
2023/08/22 00:29:06;;;;;;;;;2.00;1.25;;;;;21.78;52.12;101449.56;5096009;27;46400;-71
2023/08/22 00:31:32;;;;;;;;;1.25;1.25;;;;;21.79;51.84;101456.59;5092840;27;45424;-73
2023/08/22 00:34:00;;;;;;;;;2.00;2.00;;;;;21.76;51.80;101462.09;5090510;27;45460;-72
2023/08/22 00:36:26;;;;;;;;;1.00;1.00;;;;;21.72;52.08;101463.25;5082856;27;45421;-71
2023/08/22 00:38:51;;;;;;;;;2.50;2.00;;;;;21.67;52.42;101457.34;5084273;27;45571;-72
2023/08/22 00:41:16;;;;;;;;;3.00;2.25;;;;;21.67;52.54;101460.88;5076332;27;66310;-72
2023/08/22 00:43:42;;;;;;;;;2.75;2.00;;;;;21.63;52.83;101458.50;5082672;27;70563;-72
2023/08/22 00:46:07;;;;;;;;;3.75;3.50;;;;;21.60;52.96;101455.09;5082206;27;49003;-72
2023/08/22 00:48:33;;;;;;;;;4.25;2.75;;;;;21.53;52.93;101451.09;5081869;27;66338;-71
2023/08/22 00:50:58;;;;;;;;;6.25;4.25;;;;;21.50;52.70;101445.94;5083792;27;71286;-72
2023/08/22 00:53:25;;;;;;;;;6.25;4.00;;;;;21.47;52.99;101439.97;5083714;27;45574;-71
2023/08/22 00:55:50;;;;;;;;;5.50;4.25;;;;;21.48;53.21;101436.31;5080521;27;45497;-72
2023/08/22 00:58:16;;;;;;;;;5.50;4.25;;;;;21.46;53.14;101440.91;5089252;27;45443;-72
2023/08/22 01:00:41;;;;;;;;;4.00;3.50;;;;;21.44;53.08;101440.94;5071245;27;63836;-72
2023/08/22 01:03:07;;;;;;;;;6.75;4.50;;;;;21.43;53.23;101444.59;5085900;27;74399;-71
2023/08/22 01:05:35;;;;;;;;;7.00;3.75;;;;;21.41;53.36;101447.34;5088081;27;55922;-71
2023/08/22 01:08:09;;;;;;;;;5.00;4.00;;;;;21.39;53.28;101440.41;5073575;27;47129;-71
2023/08/22 01:10:38;;;;;;;;;7.00;5.00;;;;;21.36;53.50;101440.59;5079955;27;45516;-73
2023/08/22 01:13:12;;;;;;;;;6.00;6.00;;;;;21.35;53.62;101437.03;5086477;27;45512;-70
2023/08/22 01:15:38;;;;;;;;;6.25;4.75;;;;;21.33;53.71;101430.13;5095469;27;45716;-70
2023/08/22 01:18:04;;;;;;;;;6.25;3.75;;;;;21.28;53.81;101434.88;5086255;27;45456;-70
2023/08/22 01:20:30;;;;;;;;;6.25;3.00;;;;;21.26;54.14;101434.94;5082966;27;46959;-73
2023/08/22 01:22:56;;;;;;;;;3.50;3.00;;;;;21.26;54.31;101428.78;5082795;27;69015;-73
2023/08/22 01:25:23;;;;;;;;;5.75;3.25;;;;;21.24;54.02;101427.06;5065667;27;45501;-72
2023/08/22 01:28:12;;;;;;;;;4.75;3.00;;;;;21.21;54.48;101427.25;5077985;27;45436;-72
2023/08/22 01:31:06;;;;;;;;;2.75;2.75;;;;;21.19;54.59;101422.97;5077354;27;46861;-72
2023/08/22 01:33:34;;;;;;;;;3.25;2.75;;;;;21.18;54.41;101421.28;5087524;27;45367;-72
2023/08/22 01:36:01;;;;;;;;;1.50;1.50;;;;;21.14;54.38;101404.63;5093176;27;45571;-72
2023/08/22 01:38:28;;;;;;;;;2.50;2.25;;;;;21.16;54.61;101423.16;5086863;27;45539;-71
2023/08/22 01:40:53;;;;;;;;;2.00;2.00;;;;;21.11;54.58;101418.13;5089079;27;45612;-72
2023/08/22 01:43:19;;;;;;;;;3.00;3.00;;;;;21.08;55.41;101409.47;5083598;27;45622;-72
2023/08/22 01:45:44;;;;;;;;;4.00;2.00;;;;;21.11;54.97;101406.63;5084402;27;45543;-72
2023/08/22 01:48:10;;;;;;;;;4.25;2.00;;;;;21.11;54.79;101403.97;5084028;27;45715;-72
2023/08/22 01:50:35;;;;;;;;;2.50;2.00;;;;;21.10;54.67;101403.09;5081553;27;73138;-72
2023/08/22 01:53:01;;;;;;;;;4.75;2.00;;;;;21.11;54.64;101409.28;5079851;27;70558;-72
2023/08/22 01:55:26;;;;;;;;;4.25;2.00;;;;;21.09;55.04;101398.72;5083981;27;46137;-72
2023/08/22 01:57:51;;;;;;;;;3.25;2.00;;;;;21.07;55.25;101400.63;5089036;27;45485;-71
2023/08/22 02:00:17;;;;;;;;;2.75;2.00;;;;;21.08;55.18;101405.00;5086745;27;59033;-72
2023/08/22 02:02:42;;;;;;;;;4.75;2.75;;;;;21.05;55.13;101398.06;5088031;27;45892;-72
2023/08/22 02:05:08;;;;;;;;;5.00;4.00;;;;;21.05;54.78;101398.06;5074226;27;45296;-72
2023/08/22 02:07:33;;;;;;;;;11.25;8.25;;;;;21.03;55.04;101391.97;5100082;27;45192;-72
2023/08/22 02:09:59;;;;;;;;;5.50;3.75;;;;;20.98;56.18;101396.72;5085397;27;47047;-72
2023/08/22 02:12:24;;;;;;;;;4.50;3.25;;;;;20.96;55.08;101395.94;5085418;27;47131;-73
2023/08/22 02:14:52;;;;;;;;;2.25;1.50;;;;;20.92;55.24;101397.06;5084509;27;45713;-73
2023/08/22 02:17:17;;;;;;;;;4.50;3.00;;;;;20.92;55.59;101402.41;5085772;27;47942;-73
2023/08/22 02:19:43;;;;;;;;;2.00;2.00;;;;;20.91;55.90;101400.72;5088687;27;60981;-72
2023/08/22 02:22:08;;;;;;;;;3.75;3.75;;;;;20.86;55.97;101392.13;5078168;27;74962;-71
2023/08/22 02:24:33;;;;;;;;;2.25;1.00;;;;;20.86;56.03;101392.13;5084486;27;52522;-72
2023/08/22 02:26:59;;;;;;;;;1.00;1.00;;;;;20.83;56.03;101394.97;5100305;27;51159;-72
2023/08/22 02:29:24;;;;;;;;;2.75;2.75;;;;;20.82;56.10;101403.88;5086256;27;45702;-72
2023/08/22 02:31:49;;;;;;;;;2.25;2.25;;;;;20.78;55.77;101405.03;5089083;27;47192;-72
2023/08/22 02:34:15;;;;;;;;;3.00;1.50;;;;;20.77;56.14;101403.31;5091937;27;45457;-71
2023/08/22 02:36:40;;;;;;;;;2.00;2.00;;;;;20.75;56.25;101389.25;5094091;27;52867;-72
2023/08/22 02:39:05;;;;;;;;;3.00;0.50;;;;;20.77;56.17;101392.66;5092477;27;52420;-72
2023/08/22 02:41:31;;;;;;;;;1.50;1.00;;;;;20.76;56.07;101390.97;5068365;27;57056;-73
2023/08/22 02:43:56;;;;;;;;;1.00;1.00;;;;;20.71;56.06;101390.38;5082101;27;59999;-72
2023/08/22 02:46:21;;;;;;;;;4.50;1.25;;;;;20.66;56.38;101380.88;5096569;27;45519;-71
2023/08/22 02:48:47;;;;;;;;;2.50;2.25;;;;;20.65;56.56;101387.13;5098730;27;45736;-71
2023/08/22 02:51:12;;;;;;;;;2.00;1.25;;;;;20.61;56.50;101380.28;5089284;27;46367;-71
2023/08/22 02:53:37;;;;;;;;;2.00;2.00;;;;;20.59;56.38;101390.13;5091348;27;67044;-71
2023/08/22 02:56:04;;;;;;;;;1.50;1.50;;;;;20.52;57.23;101385.25;5080048;27;61216;-71
2023/08/22 02:58:30;;;;;;;;;5.50;2.00;;;;;20.52;56.95;101387.91;5083104;27;45544;-71
2023/08/22 03:00:56;;;;;;;;;2.00;1.75;;;;;20.49;56.80;101386.28;5082226;27;45570;-71
2023/08/22 03:03:21;;;;;;;;;1.00;1.00;;;;;20.47;57.03;101391.69;5070022;27;46998;-72
2023/08/22 03:05:47;;;;;;;;;1.00;1.00;;;;;20.46;57.67;101392.63;5086193;27;45434;-73
2023/08/22 03:08:13;;;;;;;;;2.25;1.75;;;;;20.46;56.93;101386.47;5080410;27;45622;-72
2023/08/22 03:10:39;;;;;;;;;1.00;1.00;;;;;20.46;57.52;101391.78;5085517;27;45528;-72
2023/08/22 03:13:04;;;;;;;;;1.00;1.00;;;;;20.43;57.63;101386.63;5077845;27;46545;-72
2023/08/22 03:15:32;;;;;;;;;2.00;2.00;;;;;20.41;57.17;101391.19;5064397;27;45494;-72
2023/08/22 03:17:57;;;;;;;;;1.25;1.25;;;;;20.38;57.59;101383.38;5087730;27;45908;-72
2023/08/22 03:20:23;;;;;;;;;5.00;3.00;;;;;20.36;57.49;101382.63;5081889;27;67258;-72
2023/08/22 03:22:48;;;;;;;;;4.50;2.00;;;;;20.33;57.87;101391.66;5082817;27;45739;-72
2023/08/22 03:25:13;;;;;;;;;2.00;2.00;;;;;20.29;57.60;101384.78;5082426;27;61729;-72
2023/08/22 03:27:39;;;;;;;;;2.00;2.00;;;;;20.28;57.66;101378.59;5082588;27;66747;-72
2023/08/22 03:30:05;;;;;;;;;1.00;1.00;;;;;20.31;58.11;101382.91;5083236;27;58881;-72
2023/08/22 03:32:30;;;;;;;;;1.25;1.00;;;;;20.32;57.62;101370.47;5081193;27;45405;-70
2023/08/22 03:34:56;;;;;;;;;3.50;2.00;;;;;20.34;58.21;101368.56;5074439;27;62714;-71
2023/08/22 03:37:21;;;;;;;;;3.00;2.00;;;;;20.34;58.41;101371.22;5080192;27;46065;-72
2023/08/22 03:39:46;;;;;;;;;4.00;2.00;;;;;20.37;58.44;101379.03;5075792;27;64607;-72
2023/08/22 03:42:12;;;;;;;;;3.25;2.00;;;;;20.41;58.12;101375.25;5083806;27;45500;-70
2023/08/22 03:44:37;;;;;;;;;3.00;2.00;;;;;20.45;57.86;101385.63;5101051;27;45670;-72
2023/08/22 03:47:03;;;;;;;;;4.50;2.00;;;;;20.44;57.79;101386.56;5081474;27;45467;-72
2023/08/22 03:49:28;;;;;;;;;2.50;1.75;;;;;20.47;57.93;101386.38;5083251;27;47152;-72
2023/08/22 03:51:53;;;;;;;;;2.75;2.25;;;;;20.48;57.87;101390.75;5091229;27;57198;-72
2023/08/22 03:54:18;;;;;;;;;2.75;1.00;;;;;20.48;58.09;101381.91;5088650;27;66110;-73
2023/08/22 03:56:44;;;;;;;;;2.25;2.00;;;;;20.48;58.00;101385.41;5078253;27;74260;-72
2023/08/22 03:59:09;;;;;;;;;3.00;3.00;;;;;20.51;57.94;101389.72;5075680;27;64881;-73
2023/08/22 04:01:34;;;;;;;;;1.25;1.25;;;;;20.52;57.80;101388.75;5082275;27;63889;-72
2023/08/22 04:04:00;;;;;;;;;3.00;2.00;;;;;20.55;57.79;101385.06;5084993;27;57930;-72
2023/08/22 04:06:25;;;;;;;;;4.00;2.25;;;;;20.50;58.13;101388.00;5069312;27;45951;-73
2023/08/22 04:08:51;;;;;;;;;2.00;2.00;;;;;20.47;58.16;101386.38;5081670;27;47099;-70
2023/08/22 04:11:16;;;;;;;;;3.75;2.00;;;;;20.41;58.26;101384.06;5079265;27;46925;-72
2023/08/22 04:13:41;;;;;;;;;2.00;2.00;;;;;20.38;57.97;101378.06;5087563;27;46035;-72
2023/08/22 04:16:07;;;;;;;;;2.50;2.50;;;;;20.37;58.46;101381.69;5085673;27;45517;-71
2023/08/22 04:18:32;;;;;;;;;4.00;2.00;;;;;20.30;58.17;101381.19;5090671;27;49534;-71
2023/08/22 04:20:58;;;;;;;;;4.00;2.25;;;;;20.30;58.57;101383.84;5083640;27;45334;-71
2023/08/22 04:23:23;;;;;;;;;3.00;2.00;;;;;20.28;58.73;101380.41;5094133;27;45565;-71
2023/08/22 04:25:48;;;;;;;;;3.00;2.00;;;;;20.24;58.42;101387.72;5082548;27;45481;-72
2023/08/22 04:28:15;;;;;;;;;2.25;2.25;;;;;20.25;58.73;101385.91;5079129;27;56632;-72
2023/08/22 04:30:42;;;;;;;;;1.00;1.00;;;;;20.26;58.75;101377.84;5074743;27;45891;-72
2023/08/22 04:33:07;;;;;;;;;3.50;2.00;;;;;20.27;58.83;101395.53;5090039;27;45737;-72
2023/08/22 04:35:33;;;;;;;;;4.25;1.00;;;;;20.29;58.58;101390.09;5076517;27;45505;-72
2023/08/22 04:37:58;;;;;;;;;3.25;2.50;;;;;20.31;58.75;101393.53;5085679;27;45496;-72
2023/08/22 04:40:24;;;;;;;;;3.00;2.25;;;;;20.34;59.02;101388.03;5089718;27;57001;-71
2023/08/22 04:42:49;;;;;;;;;3.00;3.00;;;;;20.33;58.54;101381.00;5084525;27;67931;-72
2023/08/22 04:45:14;;;;;;;;;4.50;2.00;;;;;20.34;58.26;101381.88;5069685;27;45524;-72
2023/08/22 04:47:40;;;;;;;;;2.50;2.00;;;;;20.32;58.39;101381.94;5083887;27;66150;-73
2023/08/22 04:50:06;;;;;;;;;5.25;1.75;;;;;20.31;58.94;101388.22;5087484;27;45772;-72
2023/08/22 04:52:32;;;;;;;;;5.00;3.75;;;;;20.28;58.46;101386.59;5095659;27;45436;-72
2023/08/22 04:55:00;;;;;;;;;2.00;2.00;;;;;20.29;58.94;101393.63;5063227;27;45509;-72
2023/08/22 04:57:25;;;;;;;;;1.00;1.00;;;;;20.15;58.79;101368.75;5079723;27;46528;-72
2023/08/22 04:59:53;;;;;;;;;4.00;3.00;;;;;20.22;59.00;101391.38;5074396;27;45491;-72
2023/08/22 05:02:19;;;;;;;;;3.00;3.00;;;;;20.14;59.03;101393.66;5078896;27;46059;-71
2023/08/22 05:04:46;;;;;;;;;2.50;2.50;;;;;20.19;59.20;101399.56;5077783;27;45578;-71
2023/08/22 05:07:12;;;;;;;;;4.25;3.25;;;;;20.20;59.64;101406.56;5082632;27;46525;-72
2023/08/22 05:09:37;;;;;;;;;2.25;2.25;;;;;20.12;58.83;101390.22;5089528;27;45722;-72
2023/08/22 05:12:03;;;;;;;;;4.75;3.00;;;;;20.15;59.11;101404.19;5072392;27;52776;-71
2023/08/22 05:14:29;;;;;;;;;2.00;2.00;;;;;20.14;59.27;101417.56;5087899;27;46670;-71
2023/08/22 05:16:55;;;;;;;;;4.00;2.50;;;;;20.10;59.55;101407.09;5088667;27;45453;-71
2023/08/22 05:19:20;;;;;;;;;3.00;3.00;;;;;20.12;59.67;101412.31;5078183;27;45438;-71
2023/08/22 05:21:46;;;;;;;;;2.00;1.00;;;;;20.12;59.27;101414.97;5088287;27;45524;-71
2023/08/22 05:24:11;;;;;;;;;2.00;2.00;;;;;20.10;59.15;101411.56;5088007;27;45396;-71
2023/08/22 05:26:36;;;;;;;;;4.00;2.00;;;;;20.10;59.46;101412.41;5082576;27;72556;-71
2023/08/22 05:29:02;;;;;;;;;2.25;1.75;;;;;20.14;59.45;101414.91;5092172;27;70765;-71
2023/08/22 05:31:28;;;;;;;;;4.50;2.75;;;;;20.12;59.50;101417.66;5080012;27;45828;-72
2023/08/22 05:33:53;;;;;;;;;3.75;2.25;;;;;20.12;60.23;101436.25;5090543;27;45492;-72
2023/08/22 05:36:18;;;;;;;;;5.25;3.00;;;;;20.14;60.08;101425.53;5087104;27;46435;-77
2023/08/22 05:38:44;;;;;;;;;3.75;2.00;;;;;20.15;60.12;101413.94;5089590;27;51577;-74
2023/08/22 05:41:09;;;;;;;;;3.75;2.00;;;;;20.18;59.92;101417.28;5088419;27;45424;-71
2023/08/22 05:43:35;;;;;;;;;3.25;3.25;;;;;20.22;59.73;101421.50;5091801;27;45460;-70
2023/08/22 05:46:01;;;;;;;;;3.50;2.00;;;;;20.17;59.55;101412.94;5091930;27;45637;-75
2023/08/22 05:48:27;;;;;;;;;10.00;4.25;;;;;20.22;59.55;101423.28;5069432;27;45324;-72
2023/08/22 05:50:52;;;;;;;;;3.50;2.75;;;;;20.23;59.76;101428.50;5091631;27;45813;-75
2023/08/22 05:53:18;;;;;;;;;3.25;3.25;;;;;20.24;59.74;101435.56;5084623;27;72423;-77
2023/08/22 05:55:43;;;;;;;;;4.00;3.25;;;;;20.22;59.75;101432.13;5091949;27;60927;-68
2023/08/22 05:58:09;;;;;;;;;2.50;2.00;;;;;20.23;60.24;101422.34;5080543;27;56235;-66
2023/08/22 06:00:34;;;;;;;;;3.75;3.75;;;;;20.28;59.90;101421.13;5098159;27;45192;-66
2023/08/22 06:03:00;;;;;;;;;5.25;3.75;;;;;20.32;59.62;101424.47;5085174;27;45571;-66
2023/08/22 06:05:25;;;;;;;;;4.25;4.00;;;;;20.27;60.09;101427.41;5089743;27;47292;-67
2023/08/22 06:07:50;;;;;;;;;3.75;3.00;;;;;20.29;59.96;101429.97;5091170;27;66246;-65
2023/08/22 06:10:16;;;;;;;;;4.00;3.25;;;;;20.37;60.07;101446.34;5093256;27;61791;-66
2023/08/22 06:12:41;;;;;;;;;6.50;3.75;;;;;20.45;59.48;101446.78;5089532;27;45367;-65
2023/08/22 06:15:07;;;;;;;;;4.00;2.75;;;;;20.53;59.96;101459.63;5086375;27;59883;-65
2023/08/22 06:17:34;;;;;;;;;6.00;4.25;;;;;20.56;59.63;101458.59;5079066;27;45300;-67
2023/08/22 06:19:59;;;;;;;;;5.50;3.75;;;;;20.59;59.64;101458.41;5094959;27;45381;-65
2023/08/22 06:22:25;;;;;;;;;7.75;5.00;;;;;20.63;59.27;101463.50;5082237;27;45378;-66
2023/08/22 06:24:50;;;;;;;;;4.75;4.00;;;;;20.69;59.40;101458.78;5085159;27;45464;-66
2023/08/22 06:27:15;;;;;;;;;6.25;5.75;;;;;20.71;59.61;101471.03;5089962;27;66834;-67
2023/08/22 06:29:40;;;;;;;;;4.00;4.00;;;;;20.77;59.14;101473.34;5088414;27;68447;-66
2023/08/22 06:32:06;;;;;;;;;5.00;3.00;;;;;20.83;59.34;101469.47;5088423;27;68483;-67
2023/08/22 06:34:33;;;;;;;;;4.75;3.75;;;;;20.89;59.19;101471.75;5087950;27;45987;-65
2023/08/22 06:36:58;;;;;;;;;3.75;3.75;;;;;20.91;58.85;101466.34;5086108;27;70372;-67
2023/08/22 06:39:24;;;;;;;;;8.25;4.00;;;;;20.99;58.87;101467.59;5093046;27;63857;-67
2023/08/22 06:41:49;;;;;;;;;4.00;3.50;;;;;21.05;58.40;101464.59;5080974;27;69668;-69
2023/08/22 06:44:14;;;;;;;;;6.50;3.25;;;;;21.09;58.65;101453.75;5080672;27;59447;-67
2023/08/22 06:46:40;;;;;;;;;4.00;4.00;;;;;21.10;58.39;101455.47;5083220;27;50569;-67
2023/08/22 06:49:05;;;;;;;;;4.00;3.25;;;;;21.14;58.21;101457.00;5088260;27;45336;-71
2023/08/22 06:51:32;;;;;;;;;6.75;4.00;;;;;21.14;58.80;101454.31;5095357;27;45805;-68
2023/08/22 06:53:57;;;;;;;;;8.00;4.00;;;;;21.19;58.90;101441.59;5081369;27;46313;-68
2023/08/22 06:56:23;;;;;;;;;9.00;4.50;;;;;21.32;58.80;101452.34;5097005;27;46145;-68
2023/08/22 06:58:49;;;;;;;;;3.00;3.00;;;;;21.42;57.77;101448.19;5091884;27;45528;-68
2023/08/22 07:01:14;;;;;;;;;9.75;6.00;;;;;21.43;58.16;101464.06;5083382;27;56393;-67
2023/08/22 07:03:41;;;;;;;;;3.00;3.00;;;;;21.49;57.63;101464.69;5092406;27;66552;-66
2023/08/22 07:06:07;;;;;;;;;5.75;3.75;;;;;21.51;57.78;101460.97;5092487;27;45586;-68
2023/08/22 07:08:32;;;;;;;;;7.50;5.00;;;;;21.56;57.20;101464.19;5088825;27;55656;-67
2023/08/22 07:11:04;;;;;;;;;5.75;3.50;;;;;21.60;57.36;101462.19;5085418;27;71767;-67
2023/08/22 07:13:31;;;;;;;;;3.75;3.75;;;;;21.61;56.99;101466.59;5083370;27;46263;-68
2023/08/22 07:15:56;;;;;;;;;7.00;4.00;;;;;21.60;56.90;101470.19;5081625;27;45441;-71
2023/08/22 07:18:21;;;;;;;;;4.25;4.00;;;;;21.64;56.84;101478.84;5083402;27;45464;-70
2023/08/22 07:20:49;;;;;;;;;4.75;3.75;;;;;21.70;56.88;101470.50;5080906;27;45289;-70
2023/08/22 07:23:15;;;;;;;;;5.00;4.00;;;;;21.71;57.20;101462.41;5078369;27;47200;-70
2023/08/22 07:25:40;;;;;;;;;3.50;3.50;;;;;21.80;56.86;101468.97;5094268;27;45539;-71
2023/08/22 07:28:05;;;;;;;;;5.00;4.00;;;;;21.83;56.63;101463.44;5079459;28;45394;-72
2023/08/22 07:30:32;;;;;;;;;6.50;4.00;;;;;21.90;56.44;101470.13;5083245;27;45334;-72
2023/08/22 07:32:58;;;;;;;;;5.00;5.00;;;;;21.94;56.63;101463.63;5079840;28;46682;-71
2023/08/22 07:35:24;;;;;;;;;4.50;4.50;;;;;21.98;56.36;101462.47;5077716;27;45395;-71
2023/08/22 07:37:51;;;;;;;;;5.50;3.75;;;;;22.04;56.13;101465.69;5078312;27;45333;-70
2023/08/22 07:40:17;;;;;;;;;6.75;4.00;;;;;22.13;56.19;101457.09;5091681;27;45640;-70
2023/08/22 07:42:43;;;;;;;;;3.75;3.75;;;;;22.24;56.22;101459.97;5079495;27;48149;-70
2023/08/22 07:45:09;;;;;;;;;4.75;4.50;;;;;22.31;55.86;101460.44;5070900;27;46494;-71
2023/08/22 07:47:34;;;;;;;;;2.00;1.00;;;;;22.43;55.85;101464.13;5090064;27;45632;-70
2023/08/22 07:50:00;;;;;;;;;4.00;3.25;;;;;22.50;55.36;101465.41;5092758;27;45439;-71
2023/08/22 07:52:25;;;;;;;;;6.00;4.25;;;;;22.52;55.25;101464.38;5096340;27;47697;-69
2023/08/22 07:54:50;;;;;;;;;8.25;3.75;;;;;22.61;55.14;101470.91;5065527;28;53969;-70
2023/08/22 07:57:16;;;;;;;;;6.50;5.75;;;;;22.62;55.33;101464.59;5073026;27;45322;-70
2023/08/22 07:59:41;;;;;;;;;8.25;4.00;;;;;22.72;55.04;101478.22;5082158;27;66331;-71
2023/08/22 08:02:06;;;;;;;;;6.00;4.00;;;;;22.74;54.64;101476.28;5079592;27;57185;-70
2023/08/22 08:04:33;;;;;;;;;7.50;6.25;;;;;22.80;54.66;101480.34;5065562;27;45257;-70
2023/08/22 08:07:01;;;;;;;;;5.75;3.75;;;;;22.88;54.56;101478.88;5096186;27;45437;-70
2023/08/22 08:09:26;;;;;;;;;3.25;3.25;;;;;22.94;54.33;101480.28;5075817;27;45410;-70
2023/08/22 08:11:55;;;;;;;;;7.00;5.00;;;;;23.02;54.32;101485.09;5088044;27;54833;-70
2023/08/22 08:14:20;;;;;;;;;4.25;3.50;;;;;23.08;54.31;101485.56;5098932;27;45862;-69
2023/08/22 08:16:45;;;;;;;;;5.25;5.00;;;;;23.17;54.10;101485.91;5078698;27;62452;-70
2023/08/22 08:19:11;;;;;;;;;25.25;20.75;;;;;23.21;54.09;101490.09;5085878;27;45283;-71
2023/08/22 08:21:37;;;;;;;;;14.25;7.00;;;;;23.27;53.82;101487.00;5096493;27;47073;-70
2023/08/22 08:24:04;;;;;;;;;8.00;7.00;;;;;23.31;53.73;101480.47;5094233;27;70665;-69
2023/08/22 08:26:30;;;;;;;;;7.50;6.75;;;;;23.39;53.50;101482.59;5085710;27;45534;-70
2023/08/22 08:28:55;;;;;;;;;9.50;5.50;;;;;23.46;53.29;101483.88;5080274;27;45524;-70
2023/08/22 08:31:21;;;;;;;;;8.75;4.50;;;;;23.55;53.12;101479.72;5088993;27;47434;-71
2023/08/22 08:33:46;;;;;;;;;3.25;3.25;;;;;23.64;53.05;101479.94;5092348;27;45436;-70
2023/08/22 08:36:12;;;;;;;;;6.75;3.50;;;;;23.73;52.92;101482.91;5079467;27;45558;-71
2023/08/22 08:38:37;;;;;;;;;3.50;2.50;;;;;23.81;52.81;101488.63;5093556;27;57327;-70
2023/08/22 08:41:03;;;;;;;;;3.00;3.00;;;;;23.90;52.15;101492.47;5087710;27;45325;-70
2023/08/22 08:43:29;;;;;;;;;4.50;4.00;;;;;23.95;52.03;101488.47;5100591;27;45774;-69
2023/08/22 08:45:55;;;;;;;;;4.50;4.00;;;;;24.06;52.12;101499.28;5090257;27;45427;-69
2023/08/22 08:48:21;;;;;;;;;2.75;2.75;;;;;24.11;51.96;101493.59;5081053;27;45301;-70
2023/08/22 08:50:48;;;;;;;;;5.25;3.75;;;;;24.19;51.47;101488.53;5073178;27;46799;-71
2023/08/22 08:53:13;;;;;;;;;7.25;3.00;;;;;24.27;51.49;101485.31;5091308;27;45915;-70
2023/08/22 08:55:41;;;;;;;;;3.50;3.25;;;;;24.38;51.50;101484.50;5087230;27;50989;-71
2023/08/22 08:58:07;;;;;;;;;6.75;3.25;;;;;24.45;51.26;101483.09;5094954;27;64684;-71
2023/08/22 09:00:33;;;;;;;;;4.50;4.00;;;;;24.54;50.72;101485.13;5071071;27;46961;-70
2023/08/22 09:02:59;;;;;;;;;4.25;3.50;;;;;24.60;50.89;101476.63;5088193;27;51017;-70
2023/08/22 09:05:24;;;;;;;;;6.50;4.00;;;;;24.68;50.59;101469.84;5080331;27;45405;-69
2023/08/22 09:07:50;;;;;;;;;7.00;4.00;;;;;24.75;50.28;101476.44;5075040;27;48294;-70
2023/08/22 09:10:34;;;;;;;;;4.00;2.50;;;;;24.82;50.30;101467.88;5081128;27;46338;-70
2023/08/22 09:13:06;;;;;;;;;12.25;8.25;;;;;24.91;49.42;101471.63;5070875;27;45300;-70
2023/08/22 09:15:32;;;;;;;;;13.50;12.00;;;;;25.00;49.34;101462.94;5095770;27;45520;-70
2023/08/22 09:17:58;;;;;;;;;5.50;3.00;;;;;25.10;49.83;101467.56;5081330;27;45507;-70
2023/08/22 09:20:24;;;;;;;;;4.25;4.25;;;;;25.17;49.32;101463.44;5085778;27;68286;-70
2023/08/22 09:22:50;;;;;;;;;7.50;4.75;;;;;25.27;48.96;101474.31;5083018;27;45255;-70
2023/08/22 09:25:16;;;;;;;;;9.00;6.75;;;;;25.32;48.95;101464.97;5086681;27;45385;-70
2023/08/22 09:27:41;;;;;;;;;3.50;3.50;;;;;25.44;48.40;101462.28;5087218;27;45395;-69
2023/08/22 09:30:07;;;;;;;;;6.25;4.00;;;;;25.54;47.79;101471.31;5091377;27;46067;-70
2023/08/22 09:32:33;;;;;;;;;5.00;4.00;;;;;25.62;47.87;101468.03;5079437;27;45257;-70
2023/08/22 09:35:01;;;;;;;;;2.25;1.25;;;;;25.70;46.68;101469.13;5090725;27;45220;-70
2023/08/22 09:37:34;;;;;;;;;5.00;4.75;;;;;25.77;47.03;101470.34;5073166;27;46198;-71
2023/08/22 09:40:01;;;;;;;;;8.00;5.00;;;;;25.81;46.57;101462.91;5084760;27;45657;-70
2023/08/22 09:42:29;;;;;;;;;2.00;1.50;;;;;25.93;46.83;101463.75;5072634;27;45245;-70
2023/08/22 09:44:55;;;;;;;;;3.25;3.25;;;;;25.98;46.77;101460.75;5080190;27;45260;-70
2023/08/22 09:47:23;;;;;;;;;20.00;16.00;;;;;26.07;46.30;101462.69;5076452;27;45460;-70
2023/08/22 09:49:50;;;;;;;;;3.00;2.00;;;;;26.12;45.85;101455.13;5073975;27;47842;-70
2023/08/22 09:52:16;;;;;;;;;2.25;2.00;;;;;26.17;45.57;101458.28;5095951;27;45400;-70
2023/08/22 09:54:43;;;;;;;;;2.00;1.00;;;;;26.28;45.22;101457.38;5099177;27;62557;-70
2023/08/22 09:57:08;;;;;;;;;3.25;2.25;;;;;26.38;44.55;101468.19;5078372;27;45386;-69
2023/08/22 09:59:34;;;;;;;;;1.50;1.00;;;;;26.44;44.41;101462.34;5096030;27;46288;-70
2023/08/22 10:02:02;;;;;;;;;2.50;2.00;;;;;26.51;44.25;101463.53;5089888;27;45309;-69
2023/08/22 10:04:28;;;;;;;;;4.00;3.00;;;;;26.61;44.37;101463.59;5102799;27;45248;-70
2023/08/22 10:06:53;;;;;;;;;0.00;0.00;;;;;26.70;44.61;101468.22;5081683;27;67625;-69
2023/08/22 10:09:19;;;;;;;;;1.00;1.00;;;;;26.73;43.42;101459.94;5102298;27;45430;-70
2023/08/22 10:11:51;;;;;;;;;1.00;1.00;;;;;26.77;43.30;101457.84;5078758;27;45513;-70
2023/08/22 10:14:22;;;;;;;;;3.75;3.75;;;;;26.85;42.32;101444.63;5101440;27;45340;-69
2023/08/22 10:16:47;;;;;;;;;1.75;0.25;;;;;26.93;43.20;101449.31;5081270;27;45550;-70
2023/08/22 10:19:13;;;;;;;;;2.00;0.25;;;;;27.01;42.25;101446.84;5081270;27;45882;-70
2023/08/22 10:21:45;;;;;;;;;1.00;1.00;;;;;27.01;42.62;101445.00;5080189;27;45729;-71
2023/08/22 10:24:28;;;;;;;;;2.00;0.25;;;;;27.10;41.37;101448.75;5097132;27;69401;-70
2023/08/22 10:27:02;;;;;;;;;2.00;1.00;;;;;27.14;41.33;101441.25;5092046;27;45484;-71
2023/08/22 10:29:31;;;;;;;;;4.75;3.25;;;;;27.19;41.03;101445.25;5096722;27;46002;-70
2023/08/22 10:32:00;;;;;;;;;2.75;2.00;;;;;27.27;41.26;101450.00;5081959;27;45541;-70
2023/08/22 10:34:34;;;;;;;;;7.00;5.50;;;;;27.33;41.63;101445.94;5101636;27;45401;-70
2023/08/22 10:37:03;;;;;;;;;36.75;29.50;;;;;27.37;41.26;101442.84;5095358;27;45286;-70
2023/08/22 10:39:39;;;;;;;;;1.75;1.25;;;;;27.45;41.41;101434.97;5087868;27;46314;-70
2023/08/22 10:42:13;;;;;;;;;1.00;0.00;;;;;27.49;41.09;101437.38;5074841;27;45609;-70
2023/08/22 10:44:40;;;;;;;;;2.50;1.00;;;;;27.57;41.16;101435.72;5097589;27;45319;-70
2023/08/22 10:47:26;;;;;;;;;2.00;1.00;;;;;27.63;40.96;101432.47;5096532;27;45419;-71
2023/08/22 10:49:56;;;;;;;;;1.00;1.00;;;;;27.69;40.96;101430.25;5090000;27;45432;-69
2023/08/22 10:52:32;;;;;;;;;0.00;0.00;;;;;27.75;40.59;101435.94;5099899;27;45626;-70
2023/08/22 10:54:57;;;;;;;;;0.50;0.50;;;;;27.80;41.05;101432.81;5094340;27;45413;-72
2023/08/22 10:57:23;;;;;;;;;1.75;1.25;;;;;27.83;41.13;101433.41;5094059;27;45475;-69
2023/08/22 11:00:01;;;;;;;;;2.00;2.00;;;;;27.84;40.49;101432.41;5098417;27;45319;-70
2023/08/22 11:02:29;;;;;;;;;1.25;1.25;;;;;27.91;40.84;101429.22;5094923;27;45492;-69
2023/08/22 11:04:58;;;;;;;;;1.00;0.00;;;;;27.94;40.15;101423.53;5085738;27;45322;-70
2023/08/22 11:07:24;;;;;;;;;0.00;0.00;;;;;27.98;40.91;101433.06;5074775;27;45683;-69
2023/08/22 11:09:50;;;;;;;;;0.00;0.00;;;;;28.03;40.21;101431.66;5095345;27;46117;-69
2023/08/22 11:12:23;;;;;;;;;1.00;0.00;;;;;28.00;39.99;101431.06;5100241;27;59437;-70
2023/08/22 11:14:51;;;;;;;;;2.00;0.00;;;;;28.02;39.84;101435.31;5076773;27;45205;-70
2023/08/22 11:17:18;;;;;;;;;0.75;0.75;;;;;28.01;39.99;101427.38;5094514;27;45480;-71
2023/08/22 11:19:43;;;;;;;;;1.75;0.00;;;;;28.09;40.15;101432.94;5100393;27;45484;-70
2023/08/22 11:22:09;;;;;;;;;0.25;0.00;;;;;28.10;39.76;101417.63;5079560;28;45365;-70